Time;durP1;ratioP1;P1;durP2;ratioP2;P2;SDS_P1;SDS_P2;PMS_P1;PMS_P2;Temp;Humidity;BMP_temperature;BMP_pressure;BME280_temperature;BME280_humidity;BME280_pressure;Samples;Min_cycle;Max_cycle;Signal;HPM_P1;HPM_P2
2023/11/02 00:02:25;;;;;;;0.77;0.77;;;8.70;99.30;;;;;;5085458;28;20665;-71
2023/11/02 00:04:52;;;;;;;1.27;0.40;;;8.70;99.00;;;;;;5081952;28;20621;-71
2023/11/02 00:07:19;;;;;;;0.93;0.73;;;8.80;98.90;;;;;;5088790;28;20632;-72
2023/11/02 00:09:46;;;;;;;1.77;1.07;;;8.80;99.10;;;;;;5088414;28;20631;-73
2023/11/02 00:12:19;;;;;;;0.93;0.87;;;8.80;99.10;;;;;;5087596;28;20620;-71
2023/11/02 00:14:51;;;;;;;1.00;0.70;;;8.60;99.20;;;;;;5087749;28;20632;-71
2023/11/02 00:17:54;;;;;;;0.53;0.53;;;8.70;99.00;;;;;;5087912;28;20976;-72
2023/11/02 00:20:33;;;;;;;1.23;0.70;;;8.70;99.20;;;;;;5089430;28;20617;-72
2023/11/02 00:23:01;;;;;;;0.93;0.50;;;8.70;99.20;;;;;;5088293;28;20644;-72
2023/11/02 00:25:50;;;;;;;1.00;0.97;;;8.60;99.30;;;;;;5091412;28;20636;-72
2023/11/02 00:28:17;;;;;;;1.67;0.80;;;8.70;99.10;;;;;;5093576;28;20621;-72
2023/11/02 00:30:45;;;;;;;1.13;1.03;;;8.70;99.10;;;;;;5087848;28;20632;-72
2023/11/02 00:33:14;;;;;;;1.17;0.80;;;8.70;99.20;;;;;;5088066;28;20618;-72
2023/11/02 00:35:45;;;;;;;0.53;0.53;;;8.70;99.00;;;;;;5092252;28;20612;-72
2023/11/02 00:38:16;;;;;;;2.80;0.73;;;8.60;98.90;;;;;;5089391;28;21489;-72
2023/11/02 00:40:43;;;;;;;0.97;0.90;;;8.60;99.20;;;;;;5086439;28;20760;-71
2023/11/02 00:43:10;;;;;;;0.90;0.80;;;8.60;99.40;;;;;;5091021;28;20616;-71
2023/11/02 00:45:41;;;;;;;0.60;0.60;;;8.70;99.20;;;;;;5094548;28;20625;-71
2023/11/02 00:48:15;;;;;;;0.93;0.83;;;8.70;99.00;;;;;;5090028;28;21479;-71
2023/11/02 00:51:20;;;;;;;1.50;1.40;;;8.70;99.20;;;;;;5087103;28;20627;-72
2023/11/02 00:53:55;;;;;;;0.80;0.80;;;8.80;98.90;;;;;;5078835;28;20643;-72
2023/11/02 00:56:24;;;;;;;2.20;1.20;;;8.70;98.70;;;;;;5086645;28;21200;-72
2023/11/02 00:58:53;;;;;;;5.90;1.20;;;8.60;99.00;;;;;;5086253;28;20626;-72
2023/11/02 01:01:21;;;;;;;0.80;0.60;;;8.60;99.10;;;;;;5079419;28;20775;-72
2023/11/02 01:03:52;;;;;;;1.17;1.07;;;8.60;98.80;;;;;;5094898;28;20624;-72
2023/11/02 01:06:21;;;;;;;0.80;0.80;;;8.70;98.60;;;;;;5086983;28;20678;-72
2023/11/02 01:09:00;;;;;;;1.03;0.80;;;8.70;98.60;;;;;;5087299;28;20632;-72
2023/11/02 01:11:33;;;;;;;2.80;1.30;;;8.60;98.40;;;;;;5082364;28;20719;-72
2023/11/02 01:14:01;;;;;;;2.77;1.37;;;8.70;99.00;;;;;;5087357;28;20628;-72
2023/11/02 01:16:29;;;;;;;0.87;0.87;;;8.80;98.70;;;;;;5086296;28;20660;-72
2023/11/02 01:18:58;;;;;;;0.90;0.77;;;8.60;98.40;;;;;;5089180;28;20747;-72
2023/11/02 01:21:27;;;;;;;0.73;0.60;;;8.70;98.50;;;;;;5088364;28;20667;-72
2023/11/02 01:24:02;;;;;;;0.90;0.63;;;8.70;98.40;;;;;;5087223;28;21261;-72
2023/11/02 01:27:00;;;;;;;1.33;0.93;;;8.60;98.40;;;;;;5087796;28;20627;-72
2023/11/02 01:29:29;;;;;;;1.20;1.10;;;8.80;98.80;;;;;;5087378;28;20625;-72
2023/11/02 01:31:56;;;;;;;1.13;1.00;;;8.80;98.80;;;;;;5078866;28;21192;-72
2023/11/02 01:34:26;;;;;;;1.20;1.00;;;8.70;98.50;;;;;;5088011;28;20656;-72
2023/11/02 01:36:56;;;;;;;0.80;0.70;;;8.70;98.40;;;;;;5081632;28;20617;-72
2023/11/02 01:39:51;;;;;;;0.70;0.70;;;8.70;98.30;;;;;;5086234;28;20629;-72
2023/11/02 01:42:23;;;;;;;1.67;1.20;;;8.80;98.40;;;;;;5085371;28;21099;-72
2023/11/02 01:45:06;;;;;;;2.77;0.93;;;8.70;98.40;;;;;;5091891;28;20711;-72
2023/11/02 01:48:06;;;;;;;0.90;0.90;;;8.70;98.70;;;;;;5091722;28;20711;-72
2023/11/02 01:50:35;;;;;;;1.30;1.20;;;8.80;98.60;;;;;;5081666;28;20644;-72
2023/11/02 01:53:28;;;;;;;1.70;1.20;;;8.70;98.10;;;;;;5093972;28;20621;-71
2023/11/02 01:56:08;;;;;;;0.60;0.60;;;8.60;98.30;;;;;;5086619;28;20944;-72
2023/11/02 01:58:45;;;;;;;0.70;0.60;;;8.60;98.40;;;;;;5090882;28;20629;-71
2023/11/02 02:01:18;;;;;;;0.87;0.87;;;8.60;98.70;;;;;;5089306;28;20771;-71
2023/11/02 02:03:54;;;;;;;1.93;0.77;;;8.70;98.60;;;;;;5092379;28;20623;-72
2023/11/02 02:06:30;;;;;;;1.03;0.67;;;8.70;98.60;;;;;;5085989;28;20621;-72
2023/11/02 02:09:08;;;;;;;1.00;1.00;;;8.60;98.50;;;;;;5084983;28;21033;-72
2023/11/02 02:11:45;;;;;;;1.43;0.90;;;8.60;98.90;;;;;;5078473;28;21320;-72
2023/11/02 02:14:25;;;;;;;1.10;0.80;;;8.70;98.60;;;;;;5086428;28;20651;-71
2023/11/02 02:16:58;;;;;;;1.10;1.10;;;8.70;98.60;;;;;;5079674;28;20638;-71
2023/11/02 02:19:51;;;;;;;2.67;1.13;;;8.70;98.80;;;;;;5086414;28;20617;-71
2023/11/02 02:22:25;;;;;;;1.10;1.00;;;8.80;99.00;;;;;;5090227;28;21085;-71
2023/11/02 02:24:59;;;;;;;1.67;1.57;;;8.80;98.70;;;;;;5089196;28;20624;-72
2023/11/02 02:27:56;;;;;;;1.27;1.03;;;8.70;98.80;;;;;;5084740;28;20705;-72
2023/11/02 02:30:51;;;;;;;1.17;1.13;;;8.70;98.90;;;;;;5087135;28;20739;-72
2023/11/02 02:33:52;;;;;;;0.90;0.90;;;8.90;99.00;;;;;;5089729;28;20631;-72
2023/11/02 02:36:28;;;;;;;1.00;0.90;;;8.80;99.00;;;;;;5085621;28;21225;-72
2023/11/02 02:39:05;;;;;;;1.67;1.10;;;8.70;99.70;;;;;;5085097;28;20624;-72
2023/11/02 02:41:39;;;;;;;1.40;1.30;;;8.90;99.50;;;;;;5087764;28;20664;-72
2023/11/02 02:44:09;;;;;;;1.60;1.30;;;8.80;99.20;;;;;;5078305;28;20747;-72
2023/11/02 02:46:39;;;;;;;1.43;1.33;;;8.80;99.30;;;;;;5087792;28;21201;-72
2023/11/02 02:49:06;;;;;;;1.90;1.27;;;8.70;99.90;;;;;;5077207;28;20621;-72
2023/11/02 02:51:36;;;;;;;1.93;1.17;;;8.90;99.60;;;;;;5085924;28;20663;-72
2023/11/02 02:54:09;;;;;;;1.90;1.37;;;8.70;99.90;;;;;;5092282;28;21050;-72
2023/11/02 02:56:40;;;;;;;1.80;1.33;;;8.70;99.90;;;;;;5087590;28;21177;-72
2023/11/02 02:59:10;;;;;;;1.07;1.07;;;8.60;99.90;;;;;;5085127;28;20617;-72
2023/11/02 03:01:40;;;;;;;1.30;1.20;;;8.60;99.90;;;;;;5089758;28;21018;-72
2023/11/02 03:04:11;;;;;;;1.30;1.30;;;8.60;99.90;;;;;;5087731;28;21030;-72
2023/11/02 03:06:41;;;;;;;1.27;1.17;;;8.70;99.90;;;;;;5088684;28;21419;-72
2023/11/02 03:09:11;;;;;;;2.33;1.50;;;8.70;99.90;;;;;;5087891;28;20616;-72
2023/11/02 03:11:38;;;;;;;1.30;1.20;;;8.80;99.90;;;;;;5089135;28;20634;-72
2023/11/02 03:14:06;;;;;;;1.53;1.43;;;8.80;99.90;;;;;;5086537;28;20658;-72
2023/11/02 03:16:36;;;;;;;2.40;1.07;;;8.90;99.90;;;;;;5084312;28;20621;-72
2023/11/02 03:19:06;;;;;;;1.00;1.00;;;8.80;99.90;;;;;;5085377;28;20617;-72
2023/11/02 03:21:33;;;;;;;4.47;2.23;;;8.50;99.90;;;;;;5087792;28;20668;-72
2023/11/02 03:24:11;;;;;;;1.93;1.43;;;8.60;99.90;;;;;;5091168;28;20620;-72
2023/11/02 03:26:53;;;;;;;1.20;1.10;;;8.60;99.90;;;;;;5096392;28;21184;-72
2023/11/02 03:29:31;;;;;;;1.33;0.80;;;8.50;99.90;;;;;;5096251;28;20621;-72
2023/11/02 03:32:09;;;;;;;1.33;1.00;;;8.70;99.90;;;;;;5096652;28;21471;-72
2023/11/02 03:34:45;;;;;;;1.30;1.20;;;8.80;99.90;;;;;;5090940;28;20633;-72
2023/11/02 03:37:20;;;;;;;0.87;0.87;;;8.70;99.90;;;;;;5091800;28;20617;-72
2023/11/02 03:40:11;;;;;;;1.10;0.93;;;8.90;99.90;;;;;;5091779;28;20750;-72
2023/11/02 03:42:50;;;;;;;1.37;1.17;;;8.90;99.90;;;;;;5093600;28;20660;-72
2023/11/02 03:45:32;;;;;;;1.00;1.00;;;8.90;99.90;;;;;;5099628;28;20964;-72
2023/11/02 03:48:10;;;;;;;0.80;0.80;;;8.90;99.90;;;;;;5088542;28;20760;-72
2023/11/02 03:50:52;;;;;;;1.53;1.30;;;9.00;99.90;;;;;;5084798;28;21258;-72
2023/11/02 03:53:27;;;;;;;1.70;0.80;;;9.00;99.90;;;;;;5095178;28;20624;-72
2023/11/02 03:56:19;;;;;;;5.80;1.67;;;9.00;99.90;;;;;;5090622;28;20622;-72
2023/11/02 03:58:58;;;;;;;1.73;1.53;;;9.00;99.90;;;;;;5087418;28;20649;-72
2023/11/02 04:01:32;;;;;;;0.93;0.93;;;9.00;99.90;;;;;;5087491;28;20623;-72
2023/11/02 04:04:06;;;;;;;1.13;1.00;;;9.00;99.90;;;;;;5087024;28;20635;-72
2023/11/02 04:06:44;;;;;;;1.77;1.63;;;9.00;99.90;;;;;;5087557;28;21140;-72
2023/11/02 04:09:15;;;;;;;1.03;0.90;;;9.00;99.90;;;;;;5086206;28;20648;-72
2023/11/02 04:11:59;;;;;;;1.63;1.10;;;9.10;99.90;;;;;;5089054;28;20627;-72
2023/11/02 04:14:26;;;;;;;1.50;1.00;;;9.10;99.90;;;;;;5086972;28;20637;-72
2023/11/02 04:16:54;;;;;;;1.20;1.10;;;9.00;99.90;;;;;;5087397;28;21328;-72
2023/11/02 04:19:21;;;;;;;0.93;0.93;;;9.00;99.90;;;;;;5087821;28;21194;-72
2023/11/02 04:21:49;;;;;;;1.50;0.97;;;8.90;99.90;;;;;;5090057;28;20620;-72
2023/11/02 04:24:16;;;;;;;3.03;1.10;;;8.90;99.90;;;;;;5091268;28;20629;-72
2023/11/02 04:26:44;;;;;;;1.47;1.37;;;8.90;99.90;;;;;;5090592;28;20645;-71
2023/11/02 04:29:11;;;;;;;1.07;0.97;;;8.90;99.90;;;;;;5086922;28;20617;-72
2023/11/02 04:31:38;;;;;;;1.40;1.30;;;8.90;99.90;;;;;;5090924;28;20953;-72
2023/11/02 04:34:05;;;;;;;1.13;1.03;;;9.00;99.90;;;;;;5088703;28;20643;-72
2023/11/02 04:36:32;;;;;;;1.13;1.03;;;9.10;99.90;;;;;;5083065;28;21020;-72
2023/11/02 04:38:59;;;;;;;1.77;1.20;;;9.00;99.90;;;;;;5087395;28;20619;-71
2023/11/02 04:41:25;;;;;;;1.03;1.03;;;8.90;99.90;;;;;;5097306;28;20621;-72
2023/11/02 04:43:54;;;;;;;2.20;1.40;;;8.90;99.90;;;;;;5095343;28;20748;-72
2023/11/02 04:46:20;;;;;;;1.30;1.20;;;8.90;99.90;;;;;;5092171;28;21049;-72
2023/11/02 04:48:47;;;;;;;1.60;1.40;;;8.90;99.90;;;;;;5087408;28;20621;-72
2023/11/02 04:51:14;;;;;;;1.10;0.97;;;8.90;99.90;;;;;;5087422;28;20671;-72
2023/11/02 04:53:41;;;;;;;1.07;1.07;;;8.90;99.90;;;;;;5088907;28;20724;-72
2023/11/02 04:56:08;;;;;;;1.17;1.03;;;8.90;99.90;;;;;;5086382;28;20619;-72
2023/11/02 04:58:35;;;;;;;0.83;0.83;;;9.00;99.90;;;;;;5085182;28;21038;-72
2023/11/02 05:01:04;;;;;;;1.13;0.90;;;9.00;99.90;;;;;;5078578;28;20625;-72
2023/11/02 05:03:30;;;;;;;1.00;0.90;;;9.00;99.90;;;;;;5087397;28;20656;-72
2023/11/02 05:05:57;;;;;;;1.20;1.20;;;9.00;99.90;;;;;;5086005;28;20614;-72
2023/11/02 05:08:24;;;;;;;1.00;0.90;;;9.00;99.90;;;;;;5090774;28;20735;-72
2023/11/02 05:10:51;;;;;;;0.97;0.70;;;8.90;99.90;;;;;;5088597;28;21388;-71
2023/11/02 05:13:18;;;;;;;1.47;0.97;;;8.80;99.90;;;;;;5086355;28;20645;-71
2023/11/02 05:15:45;;;;;;;1.00;1.00;;;9.00;99.90;;;;;;5086474;28;20629;-71
2023/11/02 05:18:13;;;;;;;1.33;1.00;;;9.10;99.90;;;;;;5085443;28;20632;-72
2023/11/02 05:20:40;;;;;;;0.80;0.80;;;9.00;99.90;;;;;;5089244;28;20635;-72
2023/11/02 05:23:09;;;;;;;2.00;1.20;;;9.00;99.90;;;;;;5087331;28;20663;-72
2023/11/02 05:25:36;;;;;;;0.90;0.90;;;9.00;99.90;;;;;;5092946;28;20617;-72
2023/11/02 05:28:02;;;;;;;1.07;0.97;;;9.10;99.90;;;;;;5086209;28;20621;-72
2023/11/02 05:30:29;;;;;;;1.53;1.07;;;9.20;99.90;;;;;;5096332;28;20633;-72
2023/11/02 05:32:56;;;;;;;1.10;1.00;;;9.20;99.90;;;;;;5094685;28;20621;-72
2023/11/02 05:35:24;;;;;;;1.40;1.30;;;9.20;99.90;;;;;;5086958;28;20625;-72
2023/11/02 05:37:51;;;;;;;0.90;0.90;;;9.20;99.90;;;;;;5086606;28;21190;-72
2023/11/02 05:40:18;;;;;;;0.80;0.80;;;9.10;99.90;;;;;;5094252;28;21194;-73
2023/11/02 05:42:45;;;;;;;0.90;0.70;;;9.10;99.90;;;;;;5086465;28;21220;-74
2023/11/02 05:45:12;;;;;;;0.60;0.60;;;9.10;99.90;;;;;;5089814;28;21186;-75
2023/11/02 05:47:39;;;;;;;2.80;0.97;;;9.10;99.90;;;;;;5085312;28;20660;-71
2023/11/02 05:50:07;;;;;;;1.33;1.07;;;9.10;99.90;;;;;;5086450;28;20609;-71
2023/11/02 05:52:35;;;;;;;0.63;0.63;;;9.00;99.90;;;;;;5087857;28;20609;-71
2023/11/02 05:55:02;;;;;;;0.97;0.80;;;9.00;99.90;;;;;;5085318;28;21291;-72
2023/11/02 05:57:29;;;;;;;0.87;0.83;;;9.00;99.90;;;;;;5084665;28;20620;-72
2023/11/02 05:59:58;;;;;;;2.07;1.17;;;9.10;99.90;;;;;;5086665;28;20628;-71
2023/11/02 06:02:25;;;;;;;0.70;0.70;;;9.00;99.90;;;;;;5093562;28;20657;-71
2023/11/02 06:04:51;;;;;;;2.40;1.00;;;9.00;99.90;;;;;;5084838;28;20661;-72
2023/11/02 06:07:18;;;;;;;1.10;1.10;;;9.00;99.90;;;;;;5084196;28;20720;-72
2023/11/02 06:09:46;;;;;;;1.67;1.10;;;9.00;99.90;;;;;;5084613;28;20625;-72
2023/11/02 06:12:13;;;;;;;1.30;1.03;;;8.90;99.90;;;;;;5086422;28;20629;-71
2023/11/02 06:14:40;;;;;;;3.40;1.10;;;8.80;99.90;;;;;;5089961;28;20629;-72
2023/11/02 06:17:07;;;;;;;1.00;0.90;;;8.90;99.90;;;;;;5086662;28;20913;-72
2023/11/02 06:19:34;;;;;;;4.60;1.50;;;9.00;99.90;;;;;;5087647;28;21399;-72
2023/11/02 06:22:01;;;;;;;1.10;0.87;;;9.10;99.90;;;;;;5085744;28;20990;-72
2023/11/02 06:24:28;;;;;;;0.90;0.90;;;9.10;99.90;;;;;;5091562;28;21081;-71
2023/11/02 06:26:56;;;;;;;0.87;0.87;;;9.00;99.90;;;;;;5090091;28;20978;-72
2023/11/02 06:29:22;;;;;;;0.83;0.83;;;9.00;99.90;;;;;;5085565;28;21302;-72
2023/11/02 06:31:50;;;;;;;0.60;0.60;;;9.00;99.90;;;;;;5090155;28;20624;-72
2023/11/02 06:34:18;;;;;;;1.93;1.10;;;9.10;99.90;;;;;;5093893;28;20982;-72
2023/11/02 06:36:45;;;;;;;3.23;1.10;;;8.90;99.90;;;;;;5085828;28;21029;-73
2023/11/02 06:39:16;;;;;;;3.23;0.80;;;8.90;99.90;;;;;;5084912;28;20947;-72
2023/11/02 06:41:43;;;;;;;1.27;1.03;;;9.00;99.90;;;;;;5086991;28;20951;-72
2023/11/02 06:44:11;;;;;;;0.97;0.73;;;9.00;99.90;;;;;;5089120;28;20669;-72
2023/11/02 06:46:38;;;;;;;5.40;2.03;;;9.00;99.90;;;;;;5085649;28;20615;-73
2023/11/02 06:49:05;;;;;;;1.47;1.07;;;9.00;99.90;;;;;;5085531;28;20619;-72
2023/11/02 06:51:32;;;;;;;1.03;0.93;;;9.10;99.90;;;;;;5088675;28;20656;-72
2023/11/02 06:53:59;;;;;;;0.70;0.70;;;9.10;99.90;;;;;;5079770;28;20633;-72
2023/11/02 06:56:26;;;;;;;2.63;1.50;;;9.10;99.90;;;;;;5082749;28;20636;-72
2023/11/02 06:58:53;;;;;;;0.77;0.77;;;9.20;99.90;;;;;;5085805;28;20687;-72
2023/11/02 07:01:22;;;;;;;1.20;0.80;;;9.20;99.90;;;;;;5090932;28;20916;-72
2023/11/02 07:03:49;;;;;;;1.10;0.63;;;9.30;99.90;;;;;;5092665;28;21346;-72
2023/11/02 07:06:15;;;;;;;0.93;0.83;;;9.20;99.90;;;;;;5088512;28;20643;-72
2023/11/02 07:08:42;;;;;;;0.80;0.80;;;9.20;99.90;;;;;;5088236;28;20629;-72
2023/11/02 07:11:09;;;;;;;1.63;1.27;;;9.30;99.90;;;;;;5087046;28;21199;-72
2023/11/02 07:13:36;;;;;;;3.73;1.23;;;9.30;99.90;;;;;;5089531;28;20667;-73
2023/11/02 07:16:03;;;;;;;0.90;0.90;;;9.30;99.90;;;;;;5091529;28;20635;-73
2023/11/02 07:18:31;;;;;;;2.10;0.87;;;9.30;99.90;;;;;;5088933;28;20748;-72
2023/11/02 07:20:58;;;;;;;0.87;0.87;;;9.40;99.90;;;;;;5091799;28;20739;-72
2023/11/02 07:23:25;;;;;;;5.93;1.23;;;9.30;99.90;;;;;;5091887;28;21237;-73
2023/11/02 07:25:52;;;;;;;1.37;1.03;;;9.30;99.90;;;;;;5096110;28;20623;-71
2023/11/02 07:28:19;;;;;;;1.70;1.10;;;9.20;99.90;;;;;;5094482;28;20983;-71
2023/11/02 07:30:46;;;;;;;1.67;1.57;;;9.30;99.90;;;;;;5088359;28;20625;-71
2023/11/02 07:33:13;;;;;;;1.03;1.00;;;9.30;99.90;;;;;;5093860;28;21213;-71
2023/11/02 07:35:41;;;;;;;1.07;0.97;;;9.40;99.90;;;;;;5095574;28;20633;-71
2023/11/02 07:38:08;;;;;;;3.43;1.57;;;9.40;99.90;;;;;;5093892;28;20950;-72
2023/11/02 07:40:35;;;;;;;0.70;0.70;;;9.50;99.90;;;;;;5090314;28;20618;-71
2023/11/02 07:43:01;;;;;;;1.03;0.80;;;9.40;99.90;;;;;;5088844;28;21019;-71
2023/11/02 07:45:28;;;;;;;0.73;0.60;;;9.30;99.90;;;;;;5088114;28;20974;-72
2023/11/02 07:47:55;;;;;;;0.90;0.90;;;9.30;99.90;;;;;;5086977;28;21201;-72
2023/11/02 07:50:22;;;;;;;0.93;0.70;;;9.30;99.90;;;;;;5085569;28;21038;-72
2023/11/02 07:52:50;;;;;;;2.97;1.33;;;9.30;99.90;;;;;;5089671;28;20724;-72
2023/11/02 07:55:17;;;;;;;1.50;1.40;;;9.40;99.90;;;;;;5100703;28;20706;-72
2023/11/02 07:57:44;;;;;;;1.10;1.10;;;9.40;99.90;;;;;;5094230;28;21022;-72
2023/11/02 08:00:12;;;;;;;1.43;1.33;;;9.40;99.90;;;;;;5087122;28;20644;-72
2023/11/02 08:02:39;;;;;;;3.10;1.97;;;9.40;99.90;;;;;;5086480;28;20724;-72
2023/11/02 08:05:07;;;;;;;2.10;1.20;;;9.30;99.90;;;;;;5079314;28;21560;-71
2023/11/02 08:07:34;;;;;;;1.70;1.47;;;9.30;99.90;;;;;;5099609;28;20636;-71
2023/11/02 08:10:03;;;;;;;1.70;1.60;;;9.30;99.90;;;;;;5087629;28;20632;-71
2023/11/02 08:12:32;;;;;;;1.00;0.90;;;9.30;99.90;;;;;;5087806;28;20625;-71
2023/11/02 08:14:59;;;;;;;1.33;1.23;;;9.40;99.90;;;;;;5087427;28;20665;-71
2023/11/02 08:17:27;;;;;;;1.07;0.97;;;9.40;99.90;;;;;;5085912;28;21232;-71
2023/11/02 08:19:55;;;;;;;1.87;1.77;;;9.30;99.90;;;;;;5085878;28;20636;-71
2023/11/02 08:22:22;;;;;;;1.93;1.83;;;9.40;99.90;;;;;;5086000;28;21204;-71
2023/11/02 08:24:51;;;;;;;2.10;2.00;;;9.40;99.90;;;;;;5087727;28;20671;-72
2023/11/02 08:27:19;;;;;;;1.23;1.13;;;9.30;99.90;;;;;;5089720;28;20694;-73
2023/11/02 08:29:50;;;;;;;1.47;1.20;;;9.20;99.90;;;;;;5087497;28;21170;-72
2023/11/02 08:32:17;;;;;;;2.17;1.97;;;9.20;99.90;;;;;;5084666;28;20633;-73
2023/11/02 08:34:47;;;;;;;1.70;1.60;;;9.30;99.90;;;;;;5086229;28;20621;-72
2023/11/02 08:37:14;;;;;;;6.80;1.40;;;9.40;99.90;;;;;;5090577;28;21020;-73
2023/11/02 08:39:40;;;;;;;1.60;1.50;;;9.40;99.90;;;;;;5086969;28;21013;-72
2023/11/02 08:42:07;;;;;;;2.90;2.10;;;9.40;99.90;;;;;;5082888;28;20629;-72
2023/11/02 08:44:39;;;;;;;3.73;1.60;;;9.40;99.90;;;;;;5091075;28;20668;-72
2023/11/02 08:47:07;;;;;;;1.90;1.80;;;9.40;99.90;;;;;;5084469;28;20625;-72
2023/11/02 08:49:35;;;;;;;1.67;1.57;;;9.50;99.90;;;;;;5086772;28;20621;-73
2023/11/02 08:52:02;;;;;;;1.47;1.27;;;9.30;99.90;;;;;;5086706;28;21154;-73
2023/11/02 08:54:29;;;;;;;2.43;1.73;;;9.50;99.90;;;;;;5086203;28;20637;-73
2023/11/02 08:56:56;;;;;;;3.77;1.90;;;9.40;99.90;;;;;;5092881;28;20768;-72
2023/11/02 08:59:23;;;;;;;1.57;1.47;;;9.40;99.90;;;;;;5079400;28;20624;-72
2023/11/02 09:01:52;;;;;;;1.60;1.50;;;9.50;99.90;;;;;;5085589;28;20633;-72
2023/11/02 09:04:19;;;;;;;3.13;1.50;;;9.40;99.90;;;;;;5087544;28;20704;-72
2023/11/02 09:06:46;;;;;;;3.13;1.50;;;9.40;99.90;;;;;;5091334;28;20637;-73
2023/11/02 09:09:13;;;;;;;2.03;1.83;;;9.40;99.90;;;;;;5094676;28;20977;-73
2023/11/02 09:11:39;;;;;;;1.20;1.10;;;9.30;99.90;;;;;;5086931;28;21038;-73
2023/11/02 09:14:06;;;;;;;2.13;1.67;;;9.40;99.90;;;;;;5088313;28;20725;-73
2023/11/02 09:16:33;;;;;;;1.70;1.50;;;9.40;99.90;;;;;;5090506;28;20629;-73
2023/11/02 09:19:01;;;;;;;1.47;1.37;;;9.40;99.90;;;;;;5087262;28;20629;-72
2023/11/02 09:21:29;;;;;;;2.17;2.00;;;9.50;99.90;;;;;;5090207;28;20649;-73
2023/11/02 09:23:56;;;;;;;1.53;1.43;;;9.40;99.90;;;;;;5089647;28;20664;-73
2023/11/02 09:26:22;;;;;;;4.20;1.90;;;9.60;99.90;;;;;;5082841;28;20629;-73
2023/11/02 09:28:50;;;;;;;2.33;2.13;;;9.60;99.90;;;;;;5090116;28;20620;-73
2023/11/02 09:31:17;;;;;;;1.80;1.70;;;9.40;99.90;;;;;;5090002;28;20647;-73
2023/11/02 09:33:44;;;;;;;2.20;2.03;;;9.50;99.90;;;;;;5085894;28;20635;-73
2023/11/02 09:36:12;;;;;;;1.97;1.60;;;9.60;99.90;;;;;;5089118;28;21404;-73
2023/11/02 09:38:39;;;;;;;2.17;1.40;;;9.60;99.90;;;;;;5087077;28;20625;-73
2023/11/02 09:41:06;;;;;;;1.83;1.60;;;9.60;99.90;;;;;;5086856;28;20635;-73
2023/11/02 09:43:34;;;;;;;2.23;2.03;;;9.60;99.90;;;;;;5092811;28;20664;-73
2023/11/02 09:46:02;;;;;;;3.90;2.23;;;9.70;99.90;;;;;;5086500;28;20660;-73
2023/11/02 09:48:29;;;;;;;1.50;1.40;;;9.70;99.90;;;;;;5084831;28;20625;-73
2023/11/02 09:50:57;;;;;;;1.33;1.10;;;9.70;99.90;;;;;;5086259;28;20620;-73
2023/11/02 09:53:28;;;;;;;1.27;1.17;;;9.80;99.90;;;;;;5078245;28;20633;-73
2023/11/02 09:55:55;;;;;;;1.67;1.57;;;9.80;99.90;;;;;;5085204;28;21169;-73
2023/11/02 09:58:23;;;;;;;1.20;0.97;;;9.90;99.90;;;;;;5089028;28;20644;-73
2023/11/02 10:00:50;;;;;;;4.03;0.93;;;10.00;99.90;;;;;;5083009;28;20632;-74
2023/11/02 10:03:17;;;;;;;0.90;0.73;;;10.10;99.90;;;;;;5083831;28;20824;-73
2023/11/02 10:05:46;;;;;;;1.10;0.90;;;10.10;99.90;;;;;;5088519;28;20632;-74
2023/11/02 10:08:13;;;;;;;0.70;0.63;;;10.10;99.90;;;;;;5091850;28;20628;-73
2023/11/02 10:10:41;;;;;;;0.60;0.60;;;10.20;99.90;;;;;;5086969;28;20626;-73
2023/11/02 10:13:09;;;;;;;1.50;0.70;;;10.20;99.90;;;;;;5084680;28;20635;-72
2023/11/02 10:15:36;;;;;;;1.13;0.90;;;10.20;99.90;;;;;;5085464;28;20975;-73
2023/11/02 10:18:03;;;;;;;0.70;0.70;;;10.30;99.90;;;;;;5079125;28;20629;-72
2023/11/02 10:20:31;;;;;;;1.00;1.00;;;10.40;99.90;;;;;;5084385;28;20629;-72
2023/11/02 10:23:00;;;;;;;0.83;0.70;;;10.40;99.90;;;;;;5084909;28;20645;-73
2023/11/02 10:25:29;;;;;;;0.67;0.67;;;10.40;99.90;;;;;;5085028;28;20668;-73
2023/11/02 10:27:57;;;;;;;1.03;0.87;;;10.40;99.90;;;;;;5085228;28;20628;-73
2023/11/02 10:30:25;;;;;;;0.80;0.73;;;10.50;99.90;;;;;;5085464;28;20632;-74
2023/11/02 10:32:51;;;;;;;2.30;0.80;;;10.50;99.90;;;;;;5087977;28;20674;-73
2023/11/02 10:35:18;;;;;;;0.50;0.40;;;10.50;99.90;;;;;;5090277;28;20652;-74
2023/11/02 10:37:45;;;;;;;0.87;0.87;;;10.40;99.90;;;;;;5085062;28;20629;-74
2023/11/02 10:40:12;;;;;;;0.60;0.57;;;10.40;99.90;;;;;;5087559;28;20631;-73
2023/11/02 10:42:40;;;;;;;0.53;0.53;;;10.40;99.90;;;;;;5088773;28;20628;-74
2023/11/02 10:45:13;;;;;;;0.60;0.60;;;10.50;99.90;;;;;;5088988;28;21051;-74
2023/11/02 10:47:41;;;;;;;1.13;1.03;;;10.70;99.90;;;;;;5087056;28;20629;-75
2023/11/02 10:50:11;;;;;;;0.67;0.50;;;10.70;99.90;;;;;;5089098;28;20621;-74
2023/11/02 10:52:45;;;;;;;0.50;0.50;;;10.60;99.90;;;;;;5087986;28;20639;-74
2023/11/02 10:55:19;;;;;;;0.63;0.50;;;10.70;99.90;;;;;;5081266;28;20636;-74
2023/11/02 10:57:48;;;;;;;0.80;0.50;;;10.60;99.90;;;;;;5095364;28;20639;-74
2023/11/02 11:00:17;;;;;;;0.83;0.83;;;10.70;99.90;;;;;;5094665;28;20694;-74
2023/11/02 11:02:47;;;;;;;0.40;0.40;;;10.60;99.90;;;;;;5088950;28;20659;-74
2023/11/02 11:05:15;;;;;;;0.67;0.53;;;10.60;99.90;;;;;;5089149;28;21000;-74
2023/11/02 11:07:44;;;;;;;0.43;0.40;;;10.60;99.90;;;;;;5088219;28;20629;-74
2023/11/02 11:10:12;;;;;;;0.40;0.40;;;10.50;99.90;;;;;;5081138;28;20724;-74
2023/11/02 11:12:39;;;;;;;0.53;0.50;;;10.60;99.90;;;;;;5089210;28;20631;-74
2023/11/02 11:15:10;;;;;;;0.67;0.33;;;10.60;99.90;;;;;;5089649;28;20629;-74
2023/11/02 11:17:42;;;;;;;1.27;0.40;;;10.60;99.90;;;;;;5085173;28;20709;-74
2023/11/02 11:20:10;;;;;;;0.50;0.40;;;10.50;99.90;;;;;;5087651;28;20621;-74
2023/11/02 11:22:39;;;;;;;0.60;0.43;;;10.60;99.90;;;;;;5088700;28;20666;-74
2023/11/02 11:25:07;;;;;;;5.33;0.93;;;10.60;99.90;;;;;;5092943;28;20721;-74
2023/11/02 11:27:36;;;;;;;0.77;0.57;;;10.50;99.90;;;;;;5088325;28;20656;-74
2023/11/02 11:30:04;;;;;;;0.63;0.43;;;10.50;99.90;;;;;;5088342;28;20682;-74
2023/11/02 11:32:33;;;;;;;0.77;0.57;;;10.50;99.90;;;;;;5088681;28;20702;-74
2023/11/02 11:35:09;;;;;;;0.50;0.50;;;10.50;99.90;;;;;;5087899;28;20636;-72
2023/11/02 11:37:39;;;;;;;0.40;0.33;;;10.50;99.90;;;;;;5085345;28;20624;-73
2023/11/02 11:40:10;;;;;;;0.50;0.50;;;10.40;99.90;;;;;;5087709;28;20975;-73
2023/11/02 11:42:56;;;;;;;0.50;0.50;;;10.30;99.90;;;;;;5088173;28;20647;-73
2023/11/02 11:45:27;;;;;;;0.57;0.57;;;10.40;99.90;;;;;;5094907;28;21144;-72
2023/11/02 11:47:54;;;;;;;0.67;0.30;;;10.30;99.90;;;;;;5086191;28;20617;-73
2023/11/02 11:50:46;;;;;;;0.70;0.53;;;10.30;99.90;;;;;;5091302;28;20625;-72
2023/11/02 11:53:17;;;;;;;0.70;0.70;;;10.40;99.90;;;;;;5067648;28;20755;-72
2023/11/02 11:55:45;;;;;;;0.90;0.60;;;10.40;99.90;;;;;;5094134;28;20628;-71
2023/11/02 11:58:13;;;;;;;0.60;0.50;;;10.40;99.90;;;;;;5087465;28;20738;-72
2023/11/02 12:01:22;;;;;;;0.50;0.50;;;10.50;99.90;;;;;;5082036;28;20624;-71
2023/11/02 12:03:49;;;;;;;0.53;0.40;;;10.40;99.90;;;;;;5059736;28;20726;-72
2023/11/02 12:06:38;;;;;;;0.60;0.50;;;10.40;99.90;;;;;;5094664;28;20668;-72
2023/11/02 12:09:09;;;;;;;0.40;0.30;;;10.40;99.90;;;;;;5101300;28;20624;-72
2023/11/02 12:11:36;;;;;;;0.60;0.60;;;10.30;99.90;;;;;;5093259;28;20666;-72
2023/11/02 12:14:13;;;;;;;0.73;0.60;;;10.20;99.90;;;;;;5096007;28;20977;-72
2023/11/02 12:16:41;;;;;;;1.50;0.70;;;10.30;99.90;;;;;;5088110;28;20995;-71
2023/11/02 12:19:10;;;;;;;0.50;0.50;;;10.20;99.90;;;;;;5087584;28;20629;-72
2023/11/02 12:21:40;;;;;;;0.67;0.50;;;10.20;99.90;;;;;;5092269;28;20982;-72
2023/11/02 12:24:09;;;;;;;0.60;0.50;;;10.30;99.90;;;;;;5089598;28;20649;-72
2023/11/02 12:26:36;;;;;;;1.93;0.70;;;10.20;99.90;;;;;;5095954;28;20629;-72
2023/11/02 12:29:08;;;;;;;0.73;0.60;;;10.30;99.90;;;;;;5091078;28;20633;-73
2023/11/02 12:31:36;;;;;;;0.70;0.70;;;10.30;99.90;;;;;;5091877;28;20648;-72
2023/11/02 12:34:06;;;;;;;0.97;0.87;;;10.30;99.90;;;;;;5096095;28;21054;-72
2023/11/02 12:36:33;;;;;;;0.93;0.70;;;10.20;99.90;;;;;;5090994;28;20625;-71
2023/11/02 12:39:01;;;;;;;1.33;1.00;;;10.20;99.90;;;;;;5086567;28;20748;-72
2023/11/02 12:41:28;;;;;;;0.80;0.60;;;10.20;99.90;;;;;;5088231;28;20664;-72
2023/11/02 12:44:00;;;;;;;3.70;0.90;;;10.20;99.90;;;;;;5089074;28;20628;-72
2023/11/02 12:46:28;;;;;;;2.73;0.40;;;10.30;99.90;;;;;;5094440;28;20702;-71
2023/11/02 12:48:54;;;;;;;1.10;0.97;;;10.30;99.90;;;;;;5095009;28;20639;-73
2023/11/02 12:51:23;;;;;;;2.23;0.50;;;10.20;99.90;;;;;;5092573;28;20625;-72
2023/11/02 12:53:51;;;;;;;0.40;0.40;;;10.20;99.90;;;;;;5092743;28;20728;-72
2023/11/02 12:56:22;;;;;;;0.47;0.47;;;10.10;99.90;;;;;;5087272;28;20648;-72
2023/11/02 12:58:58;;;;;;;0.60;0.60;;;10.10;99.90;;;;;;5091214;28;20935;-72
2023/11/02 13:01:47;;;;;;;0.80;0.50;;;10.10;99.90;;;;;;5081493;28;20626;-72
2023/11/02 13:04:15;;;;;;;0.50;0.50;;;10.20;99.90;;;;;;5085785;28;20686;-72
2023/11/02 13:06:42;;;;;;;0.40;0.40;;;10.20;99.90;;;;;;5092969;28;20620;-72
2023/11/02 13:09:13;;;;;;;0.60;0.40;;;10.20;99.90;;;;;;5081384;28;20983;-72
2023/11/02 13:11:44;;;;;;;0.60;0.50;;;10.10;99.90;;;;;;5092887;28;21260;-72
2023/11/02 13:14:12;;;;;;;0.33;0.33;;;10.00;99.90;;;;;;5088060;28;20627;-72